Time;durP1;ratioP1;P1;durP2;ratioP2;P2;SDS_P1;SDS_P2;PMS_P1;PMS_P2;Temp;Humidity;BMP_temperature;BMP_pressure;BME280_temperature;BME280_humidity;BME280_pressure;Samples;Min_cycle;Max_cycle;Signal;HPM_P1;HPM_P2
2021/06/24 00:00:48;;;;;;;;;;;;;;;24.15;34.27;84135.34;2078319;28;1249;-59
2021/06/24 00:01:49;;;;;;;;;;;;;;;24.15;34.14;84051.28;2080191;28;1336;-61
2021/06/24 00:02:49;;;;;;;;;;;;;;;24.15;34.34;84103.31;2079977;28;801;-61
2021/06/24 00:03:49;;;;;;;;;;;;;;;24.15;34.29;84099.31;2080760;28;1015;-59
2021/06/24 00:04:49;;;;;;;;;;;;;;;24.15;34.16;84095.31;2080267;28;1200;-60
2021/06/24 00:05:49;;;;;;;;;;;;;;;24.15;34.09;84103.31;2080087;28;841;-59
2021/06/24 00:06:49;;;;;;;;;;;;;;;24.15;34.53;84105.31;2079497;28;738;-59
2021/06/24 00:07:50;;;;;;;;;;;;;;;24.15;34.22;84095.31;2080055;28;1078;-59
2021/06/24 00:08:50;;;;;;;;;;;;;;;24.15;34.51;84089.31;2080042;28;805;-60
2021/06/24 00:09:50;;;;;;;;;;;;;;;24.15;34.19;84125.34;2080730;28;727;-61
2021/06/24 00:10:51;;;;;;;;;;;;;;;24.15;34.34;84097.31;2080346;28;3317;-60
2021/06/24 00:11:51;;;;;;;;;;;;;;;24.15;34.35;84145.34;2080605;28;1116;-60
2021/06/24 00:12:51;;;;;;;;;;;;;;;24.15;34.42;84103.31;2080644;28;1056;-60
2021/06/24 00:13:51;;;;;;;;;;;;;;;24.15;34.33;84113.31;2080362;28;1179;-60
2021/06/24 00:14:51;;;;;;;;;;;;;;;24.15;34.37;84095.31;2080559;28;1964;-59
2021/06/24 00:15:52;;;;;;;;;;;;;;;24.15;34.31;84097.31;2080382;28;917;-60
2021/06/24 00:16:52;;;;;;;;;;;;;;;24.15;34.54;84115.31;2080155;28;995;-60
2021/06/24 00:17:52;;;;;;;;;;;;;;;24.15;34.45;84149.34;2096327;28;1082;-60
2021/06/24 00:18:52;;;;;;;;;;;;;;;24.15;34.30;84119.31;2096061;28;951;-61
2021/06/24 00:19:52;;;;;;;;;;;;;;;24.15;34.31;84111.31;2080553;28;888;-60
2021/06/24 00:20:53;;;;;;;;;;;;;;;24.15;34.42;84115.31;2080659;28;818;-61
2021/06/24 00:21:53;;;;;;;;;;;;;;;24.15;34.49;84117.31;2071262;28;826;-60
2021/06/24 00:22:53;;;;;;;;;;;;;;;24.15;34.34;84089.31;2071996;28;968;-60
2021/06/24 00:23:53;;;;;;;;;;;;;;;24.15;34.30;84111.31;2080324;28;917;-61
2021/06/24 00:24:53;;;;;;;;;;;;;;;24.15;34.30;84117.31;2079675;28;1205;-61
2021/06/24 00:25:53;;;;;;;;;;;;;;;24.15;34.23;84117.31;2071650;28;877;-60
2021/06/24 00:26:54;;;;;;;;;;;;;;;24.15;34.10;84099.31;2079067;28;877;-60
2021/06/24 00:27:54;;;;;;;;;;;;;;;24.15;34.47;84125.34;2087871;28;876;-60
2021/06/24 00:28:54;;;;;;;;;;;;;;;24.15;34.40;84115.31;2088151;28;789;-60
2021/06/24 00:29:54;;;;;;;;;;;;;;;24.15;34.42;84129.34;2079865;28;1030;-60
2021/06/24 00:30:57;;;;;;;;;;;;;;;24.15;34.03;84095.31;2080554;28;868;-60
2021/06/24 00:32:00;;;;;;;;;;;;;;;24.15;34.39;84085.31;2080236;28;829;-61
2021/06/24 00:33:00;;;;;;;;;;;;;;;24.15;34.33;84143.34;2071409;28;1251;-61
2021/06/24 00:34:00;;;;;;;;;;;;;;;24.15;34.28;84085.31;2071681;28;2006;-61
2021/06/24 00:35:01;;;;;;;;;;;;;;;24.15;34.19;84077.31;2080437;28;1291;-59
2021/06/24 00:36:01;;;;;;;;;;;;;;;24.15;34.17;84109.31;2079672;28;841;-61
2021/06/24 00:37:02;;;;;;;;;;;;;;;24.15;34.21;84113.31;2079571;28;833;-60
2021/06/24 00:38:04;;;;;;;;;;;;;;;24.15;34.12;84143.34;2080432;28;1027;-60
2021/06/24 00:39:04;;;;;;;;;;;;;;;24.15;34.30;84097.31;2080040;28;860;-60
2021/06/24 00:40:05;;;;;;;;;;;;;;;24.15;34.17;84097.31;2079897;28;948;-60
2021/06/24 00:41:05;;;;;;;;;;;;;;;24.15;34.32;84131.34;2079879;28;861;-59
2021/06/24 00:42:06;;;;;;;;;;;;;;;24.15;34.38;84121.31;2080556;28;897;-59
2021/06/24 00:43:07;;;;;;;;;;;;;;;24.15;34.27;84099.31;2080354;28;818;-60
2021/06/24 00:44:07;;;;;;;;;;;;;;;24.15;34.42;84133.34;2079564;28;889;-60
2021/06/24 00:45:07;;;;;;;;;;;;;;;24.15;34.38;84119.31;2079650;28;1278;-59
2021/06/24 00:46:07;;;;;;;;;;;;;;;24.15;34.33;84139.34;2080118;28;1068;-61
2021/06/24 00:47:08;;;;;;;;;;;;;;;24.15;34.35;84089.31;2079570;28;833;-59
2021/06/24 00:48:08;;;;;;;;;;;;;;;24.15;34.06;84105.31;2079923;28;669;-59
2021/06/24 00:49:08;;;;;;;;;;;;;;;24.15;33.86;83977.25;2079525;28;795;-60
2021/06/24 00:50:09;;;;;;;;;;;;;;;24.15;33.42;83885.22;2087799;28;951;-60
2021/06/24 00:51:09;;;;;;;;;;;;;;;24.15;32.96;83843.19;2088188;28;1003;-59
2021/06/24 00:52:09;;;;;;;;;;;;;;;24.15;32.88;83811.19;2080119;28;844;-59
2021/06/24 00:53:10;;;;;;;;;;;;;;;24.15;33.24;83821.19;2079795;28;980;-61
2021/06/24 00:54:10;;;;;;;;;;;;;;;24.15;32.94;83855.19;2079917;28;1906;-60
2021/06/24 00:55:10;;;;;;;;;;;;;;;24.15;33.04;83851.19;2071237;28;1317;-61
2021/06/24 00:56:10;;;;;;;;;;;;;;;24.15;33.35;83863.19;2079555;28;777;-60
2021/06/24 00:57:10;;;;;;;;;;;;;;;24.15;33.07;83857.19;2079699;28;888;-59
2021/06/24 00:58:12;;;;;;;;;;;;;;;24.15;32.82;83819.19;2088295;28;817;-60
2021/06/24 00:59:12;;;;;;;;;;;;;;;24.15;33.09;83845.19;2087945;28;836;-59
2021/06/24 01:00:12;;;;;;;;;;;;;;;24.15;32.97;83815.19;2071806;28;845;-60
2021/06/24 01:01:12;;;;;;;;;;;;;;;24.15;33.00;83835.19;2079174;28;896;-60
2021/06/24 01:02:13;;;;;;;;;;;;;;;24.15;32.91;83817.19;2079987;28;846;-61
2021/06/24 01:03:13;;;;;;;;;;;;;;;24.15;33.11;83891.22;2087965;28;863;-61
2021/06/24 01:04:19;;;;;;;;;;;;;;;24.15;32.94;83835.19;2096456;28;852;-59
2021/06/24 01:05:19;;;;;;;;;;;;;;;24.15;32.87;83853.19;2079537;28;1340;-60
2021/06/24 01:06:19;;;;;;;;;;;;;;;24.15;33.00;83819.19;2079466;28;1226;-59
2021/06/24 01:07:19;;;;;;;;;;;;;;;24.15;33.02;83833.19;2080197;28;936;-60
2021/06/24 01:08:24;;;;;;;;;;;;;;;24.15;32.96;83823.19;2080632;28;816;-60
2021/06/24 01:09:24;;;;;;;;;;;;;;;24.15;33.09;83841.19;2080416;28;887;-61
2021/06/24 01:10:24;;;;;;;;;;;;;;;24.15;33.16;83863.19;2080599;28;892;-60
2021/06/24 01:11:24;;;;;;;;;;;;;;;24.15;33.17;83865.19;2079471;28;3572;-61
2021/06/24 01:12:25;;;;;;;;;;;;;;;24.15;33.37;83885.22;2071222;28;1010;-59
2021/06/24 01:13:25;;;;;;;;;;;;;;;24.15;33.54;83865.19;2079706;28;1096;-59
2021/06/24 01:14:25;;;;;;;;;;;;;;;24.15;33.48;83863.19;2079490;28;1976;-60
2021/06/24 01:15:25;;;;;;;;;;;;;;;24.15;33.05;83873.22;2079712;28;1241;-60
2021/06/24 01:16:25;;;;;;;;;;;;;;;24.15;33.06;83881.22;2079884;28;924;-60
2021/06/24 01:17:26;;;;;;;;;;;;;;;24.15;33.19;83855.19;2080669;28;901;-60
2021/06/24 01:18:26;;;;;;;;;;;;;;;24.15;33.28;83831.19;2087703;28;760;-61
2021/06/24 01:19:26;;;;;;;;;;;;;;;24.15;33.07;83851.19;2079930;28;1253;-60
2021/06/24 01:20:27;;;;;;;;;;;;;;;24.15;32.88;83837.19;2071526;28;992;-60
2021/06/24 01:21:27;;;;;;;;;;;;;;;24.15;33.24;83821.19;2079982;28;817;-60
2021/06/24 01:22:27;;;;;;;;;;;;;;;24.15;33.23;83841.19;2080383;28;849;-60
2021/06/24 01:23:28;;;;;;;;;;;;;;;24.15;33.26;83857.19;2080379;28;755;-61
2021/06/24 01:24:28;;;;;;;;;;;;;;;24.15;33.26;83799.16;2080068;28;884;-60
2021/06/24 01:25:28;;;;;;;;;;;;;;;24.15;33.03;83809.19;2096152;28;1210;-60
2021/06/24 01:26:29;;;;;;;;;;;;;;;24.15;32.96;83853.19;2087417;28;825;-60
2021/06/24 01:27:29;;;;;;;;;;;;;;;24.15;33.09;83833.19;2079692;28;892;-59
2021/06/24 01:28:29;;;;;;;;;;;;;;;24.15;33.29;83839.19;2081128;28;931;-59
2021/06/24 01:29:29;;;;;;;;;;;;;;;24.15;32.91;83875.22;2080966;28;830;-60
2021/06/24 01:30:29;;;;;;;;;;;;;;;24.15;33.35;83851.19;2080996;28;821;-60
2021/06/24 01:31:30;;;;;;;;;;;;;;;24.15;32.92;83901.22;2082945;28;1266;-61
2021/06/24 01:32:30;;;;;;;;;;;;;;;24.15;33.10;83867.19;2080395;28;956;-60
2021/06/24 01:33:30;;;;;;;;;;;;;;;24.15;32.81;83841.19;2088407;28;829;-61
2021/06/24 01:34:31;;;;;;;;;;;;;;;24.15;32.87;83871.22;2088612;28;1965;-61
2021/06/24 01:35:31;;;;;;;;;;;;;;;24.15;32.93;83803.19;2088538;28;1240;-59
2021/06/24 01:36:31;;;;;;;;;;;;;;;24.15;33.07;83863.19;2087537;28;790;-60
2021/06/24 01:37:31;;;;;;;;;;;;;;;24.15;33.18;83835.19;2088239;28;1011;-60
2021/06/24 01:38:31;;;;;;;;;;;;;;;24.15;32.87;83827.19;2087920;28;762;-60
2021/06/24 01:39:32;;;;;;;;;;;;;;;24.15;33.06;83845.19;2087988;28;760;-60
2021/06/24 01:40:32;;;;;;;;;;;;;;;24.15;33.11;83825.19;2088116;28;898;-60
2021/06/24 01:41:32;;;;;;;;;;;;;;;24.15;33.07;83815.19;2088497;28;1039;-60
2021/06/24 01:42:33;;;;;;;;;;;;;;;24.15;33.11;83851.19;2088095;28;696;-60
2021/06/24 01:43:33;;;;;;;;;;;;;;;24.15;32.79;83853.19;2088039;28;908;-61
2021/06/24 01:44:36;;;;;;;;;;;;;;;24.15;33.06;83833.19;2088984;28;620;-60
2021/06/24 01:45:49;;;;;;;;;;;;;;;24.15;33.15;83845.19;2088556;28;1297;-60
2021/06/24 01:46:49;;;;;;;;;;;;;;;24.15;33.37;83853.19;2088042;28;813;-59
2021/06/24 01:47:49;;;;;;;;;;;;;;;24.15;32.97;83849.19;2088204;28;889;-60
2021/06/24 01:48:50;;;;;;;;;;;;;;;24.15;32.49;83821.19;2088519;28;999;-60
2021/06/24 01:49:50;;;;;;;;;;;;;;;24.15;32.42;83875.22;2087798;28;767;-60
2021/06/24 01:50:50;;;;;;;;;;;;;;;24.15;33.40;83901.22;2087994;28;801;-61
2021/06/24 01:51:50;;;;;;;;;;;;;;;24.15;33.50;83893.22;2079539;28;1034;-60
2021/06/24 01:52:51;;;;;;;;;;;;;;;24.15;33.24;83897.22;2079574;28;821;-60
2021/06/24 01:53:51;;;;;;;;;;;;;;;24.15;33.21;83897.22;2087752;28;852;-60
2021/06/24 01:54:51;;;;;;;;;;;;;;;24.15;33.52;83903.22;2087765;28;1967;-61
2021/06/24 01:55:52;;;;;;;;;;;;;;;24.15;33.37;83905.22;2087732;28;974;-61
2021/06/24 01:56:52;;;;;;;;;;;;;;;24.15;33.45;83895.22;2088039;28;847;-59
2021/06/24 01:57:52;;;;;;;;;;;;;;;24.15;33.23;83889.22;2087577;28;801;-61
2021/06/24 01:58:53;;;;;;;;;;;;;;;24.15;33.68;83859.19;2087797;28;821;-61
2021/06/24 01:59:53;;;;;;;;;;;;;;;24.15;33.32;83869.22;2087729;28;805;-59
2021/06/24 02:00:54;;;;;;;;;;;;;;;24.15;33.23;83825.19;2087692;28;806;-59
2021/06/24 02:01:54;;;;;;;;;;;;;;;24.15;33.21;83855.19;2087721;28;841;-61
2021/06/24 02:02:55;;;;;;;;;;;;;;;24.15;33.08;83841.19;2087809;28;971;-60
2021/06/24 02:03:56;;;;;;;;;;;;;;;24.15;33.30;83863.19;2087390;28;1023;-60
2021/06/24 02:04:56;;;;;;;;;;;;;;;24.15;32.86;83831.19;2087327;28;1213;-61
2021/06/24 02:05:56;;;;;;;;;;;;;;;24.15;32.27;83861.19;2087614;28;828;-62
2021/06/24 02:06:56;;;;;;;;;;;;;;;24.15;32.31;83867.19;2087833;28;852;-60
2021/06/24 02:07:57;;;;;;;;;;;;;;;24.15;32.71;83889.22;2087665;28;900;-60
2021/06/24 02:08:57;;;;;;;;;;;;;;;24.15;32.58;83897.22;2087877;28;956;-61
2021/06/24 02:09:57;;;;;;;;;;;;;;;24.15;32.88;83873.22;2088221;28;936;-61
2021/06/24 02:10:57;;;;;;;;;;;;;;;24.15;32.78;83873.22;2084300;28;2905;-61
2021/06/24 02:11:57;;;;;;;;;;;;;;;24.15;32.95;83891.22;2087127;28;1141;-60
2021/06/24 02:12:58;;;;;;;;;;;;;;;24.15;33.23;83899.22;2079548;28;1158;-60
2021/06/24 02:13:58;;;;;;;;;;;;;;;24.15;32.59;83911.22;2079155;28;1262;-59
2021/06/24 02:14:58;;;;;;;;;;;;;;;24.15;32.60;83883.22;2087539;28;1899;-61
2021/06/24 02:15:58;;;;;;;;;;;;;;;24.15;32.77;83881.22;2088236;28;844;-61
2021/06/24 02:16:58;;;;;;;;;;;;;;;24.15;33.03;83893.22;2087090;28;850;-61
2021/06/24 02:17:59;;;;;;;;;;;;;;;24.15;33.16;83883.22;2087725;28;876;-61
2021/06/24 02:18:59;;;;;;;;;;;;;;;24.15;33.10;83901.22;2087711;28;787;-61
2021/06/24 02:19:59;;;;;;;;;;;;;;;24.15;32.84;83869.22;2087695;28;931;-61
2021/06/24 02:20:59;;;;;;;;;;;;;;;24.15;33.22;83863.19;2088196;28;869;-62
2021/06/24 02:21:59;;;;;;;;;;;;;;;24.15;33.26;83859.19;2087437;28;830;-61
2021/06/24 02:22:59;;;;;;;;;;;;;;;24.15;33.15;83833.19;2079257;28;1003;-62
2021/06/24 02:24:00;;;;;;;;;;;;;;;24.15;33.13;83839.19;2078908;28;854;-61
2021/06/24 02:25:00;;;;;;;;;;;;;;;24.15;33.65;83921.22;2087366;28;1205;-60
2021/06/24 02:26:00;;;;;;;;;;;;;;;24.15;33.31;83891.22;2095896;28;1418;-61
2021/06/24 02:27:00;;;;;;;;;;;;;;;24.15;33.01;83869.22;2103648;28;817;-61
2021/06/24 02:28:00;;;;;;;;;;;;;;;24.15;32.93;83883.22;2088266;28;614;-61
2021/06/24 02:29:01;;;;;;;;;;;;;;;24.15;33.14;83845.19;2088042;28;1046;-60
2021/06/24 02:30:01;;;;;;;;;;;;;;;24.15;33.09;83857.19;2079276;28;865;-60
2021/06/24 02:31:01;;;;;;;;;;;;;;;24.15;33.03;83845.19;2079173;28;739;-60
2021/06/24 02:32:01;;;;;;;;;;;;;;;24.15;32.93;83847.19;2088365;28;861;-59
2021/06/24 02:33:04;;;;;;;;;;;;;;;24.15;33.03;83827.19;2087544;28;873;-61
2021/06/24 02:34:04;;;;;;;;;;;;;;;24.15;32.86;83839.19;2087586;28;1047;-61
2021/06/24 02:35:05;;;;;;;;;;;;;;;24.15;33.03;83857.19;2087747;28;1918;-60
2021/06/24 02:36:05;;;;;;;;;;;;;;;24.15;32.93;83853.19;2087520;28;924;-60
2021/06/24 02:37:05;;;;;;;;;;;;;;;24.15;32.81;83845.19;2086903;28;1035;-59
2021/06/24 02:38:06;;;;;;;;;;;;;;;24.15;32.81;83845.19;2087823;28;1166;-60
2021/06/24 02:39:06;;;;;;;;;;;;;;;24.15;33.14;83857.19;2087793;28;976;-60
2021/06/24 02:40:07;;;;;;;;;;;;;;;24.15;33.26;83893.22;2088541;28;816;-60
2021/06/24 02:41:07;;;;;;;;;;;;;;;24.15;33.26;83909.22;2087916;28;995;-59
2021/06/24 02:42:07;;;;;;;;;;;;;;;24.15;33.06;83871.22;2087754;28;943;-61
2021/06/24 02:43:07;;;;;;;;;;;;;;;24.15;33.11;83861.19;2087483;28;1111;-61
2021/06/24 02:44:07;;;;;;;;;;;;;;;24.15;32.87;83845.19;2087620;28;857;-59
2021/06/24 02:45:08;;;;;;;;;;;;;;;24.15;32.92;83827.19;2078799;28;1279;-60
2021/06/24 02:46:08;;;;;;;;;;;;;;;24.15;32.69;83851.19;2087462;28;1019;-60
2021/06/24 02:47:08;;;;;;;;;;;;;;;24.15;32.91;83819.19;2087075;28;1351;-60
2021/06/24 02:48:09;;;;;;;;;;;;;;;24.15;32.72;83879.22;2079263;28;995;-60
2021/06/24 02:49:09;;;;;;;;;;;;;;;24.15;32.84;83853.19;2079214;28;1214;-60
2021/06/24 02:50:09;;;;;;;;;;;;;;;24.15;32.86;83875.22;2087250;28;790;-60
2021/06/24 02:51:09;;;;;;;;;;;;;;;24.15;33.00;83881.22;2087904;28;991;-60
2021/06/24 02:52:10;;;;;;;;;;;;;;;24.15;32.76;83897.22;2088028;28;828;-60
2021/06/24 02:53:10;;;;;;;;;;;;;;;24.15;33.33;83913.22;2088268;28;801;-60
2021/06/24 02:54:10;;;;;;;;;;;;;;;24.15;33.12;83897.22;2087883;28;1961;-61
2021/06/24 02:55:10;;;;;;;;;;;;;;;24.15;32.77;83897.22;2087357;28;1210;-60
2021/06/24 02:56:11;;;;;;;;;;;;;;;24.15;32.96;83867.19;2078655;28;843;-60
2021/06/24 02:57:11;;;;;;;;;;;;;;;24.15;32.87;83911.22;2087113;28;667;-61
2021/06/24 02:58:11;;;;;;;;;;;;;;;24.15;33.09;83911.22;2087977;28;911;-60
2021/06/24 02:59:11;;;;;;;;;;;;;;;24.15;32.96;83871.22;2088261;28;864;-60
2021/06/24 03:00:12;;;;;;;;;;;;;;;24.15;33.06;83951.25;2084377;28;856;-60
2021/06/24 03:01:12;;;;;;;;;;;;;;;24.15;32.98;83843.19;2069847;28;2083;-60
2021/06/24 03:02:12;;;;;;;;;;;;;;;24.15;32.70;83867.19;2078323;28;1890;-60
2021/06/24 03:03:12;;;;;;;;;;;;;;;24.15;32.61;83899.22;2079911;28;1016;-59
2021/06/24 03:04:12;;;;;;;;;;;;;;;24.15;32.70;83871.22;2079621;28;1129;-60
2021/06/24 03:05:15;;;;;;;;;;;;;;;24.15;32.93;83837.19;2079083;28;1222;-61
2021/06/24 03:06:15;;;;;;;;;;;;;;;24.15;32.81;83885.22;2079071;28;887;-61
2021/06/24 03:07:15;;;;;;;;;;;;;;;24.15;33.19;83905.22;2079153;28;944;-61
2021/06/24 03:08:15;;;;;;;;;;;;;;;24.15;33.02;83873.22;2079711;28;937;-62
2021/06/24 03:09:15;;;;;;;;;;;;;;;24.15;33.51;83921.22;2079923;28;798;-60
2021/06/24 03:10:17;;;;;;;;;;;;;;;24.15;32.86;83875.22;2079089;28;821;-59
2021/06/24 03:11:18;;;;;;;;;;;;;;;24.15;32.95;83881.22;2073217;28;3039;-60
2021/06/24 03:12:18;;;;;;;;;;;;;;;24.15;32.72;83859.19;2087200;28;1142;-61
2021/06/24 03:13:18;;;;;;;;;;;;;;;24.15;32.98;83837.19;2087032;28;1173;-60
2021/06/24 03:14:19;;;;;;;;;;;;;;;24.15;32.94;83881.22;2087264;28;1910;-60
2021/06/24 03:15:19;;;;;;;;;;;;;;;24.15;33.03;83881.22;2088020;28;1212;-61
2021/06/24 03:16:19;;;;;;;;;;;;;;;24.15;33.21;83937.22;2087906;28;817;-61
2021/06/24 03:17:19;;;;;;;;;;;;;;;24.15;33.43;83945.25;2087619;28;692;-60
2021/06/24 03:18:19;;;;;;;;;;;;;;;24.15;33.17;83897.22;2087943;28;1027;-60
2021/06/24 03:19:20;;;;;;;;;;;;;;;24.15;32.79;83907.22;2087780;28;963;-61
2021/06/24 03:20:22;;;;;;;;;;;;;;;24.15;32.94;83869.22;2087424;28;859;-60
2021/06/24 03:21:22;;;;;;;;;;;;;;;24.15;33.16;83955.25;2087228;28;833;-60
2021/06/24 03:22:22;;;;;;;;;;;;;;;24.15;33.06;83849.19;2096011;28;876;-60
2021/06/24 03:23:23;;;;;;;;;;;;;;;24.15;33.19;83897.22;2095497;28;889;-59
2021/06/24 03:24:23;;;;;;;;;;;;;;;24.15;32.93;83891.22;2078865;28;1392;-59
2021/06/24 03:25:23;;;;;;;;;;;;;;;24.15;33.08;83897.22;2086861;28;1310;-61
2021/06/24 03:26:23;;;;;;;;;;;;;;;24.15;32.88;83915.22;2087131;28;892;-61
2021/06/24 03:27:24;;;;;;;;;;;;;;;24.15;33.42;83957.25;2087623;28;749;-60
2021/06/24 03:28:24;;;;;;;;;;;;;;;24.15;33.28;83959.25;2087409;28;1272;-61
2021/06/24 03:29:24;;;;;;;;;;;;;;;24.15;33.03;83919.22;2078744;28;916;-60
2021/06/24 03:30:24;;;;;;;;;;;;;;;24.15;33.12;83925.22;2087255;28;868;-60
2021/06/24 03:31:24;;;;;;;;;;;;;;;24.15;33.07;83931.22;2095282;28;840;-60
2021/06/24 03:32:24;;;;;;;;;;;;;;;24.15;33.07;83931.22;2082388;28;1396;-60
2021/06/24 03:33:25;;;;;;;;;;;;;;;24.15;32.98;83953.25;2070781;28;1186;-60
2021/06/24 03:34:25;;;;;;;;;;;;;;;24.15;32.96;83871.22;2095512;28;1971;-59
2021/06/24 03:35:25;;;;;;;;;;;;;;;24.15;33.02;83889.22;2095058;28;1310;-59
2021/06/24 03:36:26;;;;;;;;;;;;;;;24.15;32.75;83863.19;2080508;28;971;-61
2021/06/24 03:37:26;;;;;;;;;;;;;;;24.15;32.85;83843.19;2081045;28;860;-61
2021/06/24 03:38:26;;;;;;;;;;;;;;;24.15;32.86;83925.22;2097155;28;962;-61
2021/06/24 03:39:26;;;;;;;;;;;;;;;24.15;33.25;83969.25;2088879;28;940;-60
2021/06/24 03:40:26;;;;;;;;;;;;;;;24.15;33.14;83917.22;2080790;28;821;-60
2021/06/24 03:41:26;;;;;;;;;;;;;;;24.15;33.49;83973.25;2080809;28;740;-60
2021/06/24 03:42:27;;;;;;;;;;;;;;;24.15;33.32;83949.25;2081336;28;948;-59
2021/06/24 03:43:27;;;;;;;;;;;;;;;24.15;33.14;83923.22;2080664;28;869;-61
2021/06/24 03:44:27;;;;;;;;;;;;;;;24.15;33.05;83923.22;2088911;28;898;-61
2021/06/24 03:45:27;;;;;;;;;;;;;;;24.15;33.07;83929.22;2096936;28;1283;-59
2021/06/24 03:46:28;;;;;;;;;;;;;;;24.15;33.19;83909.22;2080799;28;821;-61
2021/06/24 03:47:28;;;;;;;;;;;;;;;24.15;32.96;83875.22;2081060;28;872;-59
2021/06/24 03:48:28;;;;;;;;;;;;;;;24.15;33.09;83877.22;2081032;28;879;-60
2021/06/24 03:49:28;;;;;;;;;;;;;;;24.15;33.05;83951.25;2081385;28;662;-61
2021/06/24 03:50:28;;;;;;;;;;;;;;;24.15;32.94;83885.22;2081036;28;900;-61
2021/06/24 03:51:28;;;;;;;;;;;;;;;24.15;32.85;83881.22;2081205;28;857;-60
2021/06/24 03:52:29;;;;;;;;;;;;;;;24.15;32.95;83907.22;2080884;28;856;-60
2021/06/24 03:53:29;;;;;;;;;;;;;;;24.15;33.27;83895.22;2080962;28;1038;-60
2021/06/24 03:54:30;;;;;;;;;;;;;;;24.15;33.13;83875.22;2080890;28;1902;-59
2021/06/24 03:55:37;;;;;;;;;;;;;;;24.15;32.95;83899.22;2081075;28;1211;-60
2021/06/24 03:56:37;;;;;;;;;;;;;;;24.15;32.93;83905.22;2079771;28;780;-59
2021/06/24 03:57:37;;;;;;;;;;;;;;;24.15;33.11;83889.22;2080522;28;829;-60
2021/06/24 03:58:38;;;;;;;;;;;;;;;24.15;32.79;83897.22;2080292;28;1043;-60
2021/06/24 03:59:38;;;;;;;;;;;;;;;24.15;32.86;83885.22;2080918;28;880;-59
2021/06/24 04:00:39;;;;;;;;;;;;;;;24.15;33.17;83889.22;2080317;28;802;-61
2021/06/24 04:01:42;;;;;;;;;;;;;;;24.15;33.05;83849.19;2080367;28;873;-60
2021/06/24 04:02:42;;;;;;;;;;;;;;;24.15;33.03;83869.22;2080193;28;975;-60
2021/06/24 04:03:43;;;;;;;;;;;;;;;24.15;33.14;83933.22;2081149;28;854;-60
2021/06/24 04:04:43;;;;;;;;;;;;;;;24.15;33.47;83981.25;2079854;28;1184;-61
2021/06/24 04:05:44;;;;;;;;;;;;;;;24.15;33.21;83905.22;2072049;28;913;-62
2021/06/24 04:06:44;;;;;;;;;;;;;;;24.15;32.86;83865.19;2079505;28;828;-61
2021/06/24 04:07:44;;;;;;;;;;;;;;;24.15;33.13;83881.22;2081142;28;655;-60
2021/06/24 04:08:44;;;;;;;;;;;;;;;24.15;33.08;83873.22;2080943;28;1066;-60
2021/06/24 04:09:44;;;;;;;;;;;;;;;24.15;32.94;83877.22;2081166;28;873;-59
2021/06/24 04:10:45;;;;;;;;;;;;;;;24.15;33.13;83893.22;2080612;28;3577;-60
2021/06/24 04:11:45;;;;;;;;;;;;;;;24.15;32.84;83885.22;2080167;28;1212;-60
2021/06/24 04:12:45;;;;;;;;;;;;;;;24.15;33.14;83891.22;2080063;28;1028;-61
2021/06/24 04:13:45;;;;;;;;;;;;;;;24.15;32.68;83887.22;2080912;28;1237;-59
2021/06/24 04:14:45;;;;;;;;;;;;;;;24.15;32.59;83975.25;2080410;28;1909;-61
2021/06/24 04:15:46;;;;;;;;;;;;;;;24.15;32.86;83943.25;2081127;28;830;-60
2021/06/24 04:16:46;;;;;;;;;;;;;;;24.15;33.11;83957.25;2095979;28;897;-60
2021/06/24 04:17:46;;;;;;;;;;;;;;;24.15;33.33;83961.25;2096811;28;964;-60
2021/06/24 04:18:46;;;;;;;;;;;;;;;24.15;33.31;83951.25;2081151;28;812;-60
2021/06/24 04:19:46;;;;;;;;;;;;;;;24.15;33.06;83943.25;2080860;28;727;-60
2021/06/24 04:20:47;;;;;;;;;;;;;;;24.15;33.26;83917.22;2081078;28;963;-60
2021/06/24 04:21:47;;;;;;;;;;;;;;;24.15;32.85;83929.22;2080609;28;785;-60
2021/06/24 04:22:47;;;;;;;;;;;;;;;24.15;33.03;83935.22;2080779;28;801;-61
2021/06/24 04:23:47;;;;;;;;;;;;;;;24.15;32.89;83981.25;2096587;28;813;-60
2021/06/24 04:24:47;;;;;;;;;;;;;;;24.15;33.13;83911.22;2088387;28;1420;-61
2021/06/24 04:25:47;;;;;;;;;;;;;;;24.15;33.12;83947.25;2079867;28;904;-60
2021/06/24 04:26:48;;;;;;;;;;;;;;;24.15;33.04;83933.22;2095683;28;672;-60
2021/06/24 04:27:48;;;;;;;;;;;;;;;24.15;33.09;83953.25;2087707;28;967;-61
2021/06/24 04:28:49;;;;;;;;;;;;;;;24.15;33.17;83949.25;2080376;28;826;-60
2021/06/24 04:29:49;;;;;;;;;;;;;;;24.15;33.15;83929.22;2079847;28;798;-60
2021/06/24 04:30:49;;;;;;;;;;;;;;;24.15;33.15;83919.22;2079799;28;896;-60
2021/06/24 04:31:49;;;;;;;;;;;;;;;24.15;33.12;83971.25;2080436;28;829;-61
2021/06/24 04:32:52;;;;;;;;;;;;;;;24.15;33.55;83973.25;2080479;28;888;-60
2021/06/24 04:33:52;;;;;;;;;;;;;;;24.15;33.79;83983.25;2080238;28;868;-60
2021/06/24 04:34:52;;;;;;;;;;;;;;;24.15;33.17;83963.25;2080175;28;1973;-60
2021/06/24 04:35:53;;;;;;;;;;;;;;;24.15;33.37;83947.25;2080414;28;813;-59
2021/06/24 04:36:53;;;;;;;;;;;;;;;24.15;33.46;83901.22;2095808;28;936;-59
2021/06/24 04:37:53;;;;;;;;;;;;;;;24.15;33.60;83901.22;2096037;28;1034;-60
2021/06/24 04:38:53;;;;;;;;;;;;;;;24.15;33.53;83971.25;2080261;28;809;-60
2021/06/24 04:39:53;;;;;;;;;;;;;;;24.15;33.88;83975.25;2080358;28;705;-59
2021/06/24 04:40:54;;;;;;;;;;;;;;;24.15;33.32;83935.22;2080422;28;956;-60
2021/06/24 04:41:54;;;;;;;;;;;;;;;24.15;34.00;83977.25;2080453;28;844;-59
2021/06/24 04:42:54;;;;;;;;;;;;;;;24.15;33.81;83969.25;2080496;28;729;-62
2021/06/24 04:43:54;;;;;;;;;;;;;;;24.15;33.84;83941.25;2080412;28;905;-62
2021/06/24 04:44:54;;;;;;;;;;;;;;;24.15;33.51;83913.22;2095958;28;1293;-60
2021/06/24 04:45:55;;;;;;;;;;;;;;;24.15;33.58;83939.25;2096402;28;852;-60
2021/06/24 04:46:55;;;;;;;;;;;;;;;24.15;33.64;83959.25;2079533;28;831;-61
2021/06/24 04:47:55;;;;;;;;;;;;;;;24.15;33.32;83919.22;2080509;28;789;-60
2021/06/24 04:48:55;;;;;;;;;;;;;;;24.15;33.62;83911.22;2080175;28;880;-60
2021/06/24 04:49:55;;;;;;;;;;;;;;;24.15;33.07;83913.22;2080344;28;793;-60
2021/06/24 04:50:56;;;;;;;;;;;;;;;24.15;33.26;83881.22;2096178;28;829;-59
2021/06/24 04:51:56;;;;;;;;;;;;;;;24.15;33.47;83877.22;2096378;28;1023;-60
2021/06/24 04:52:56;;;;;;;;;;;;;;;24.15;34.40;84027.28;2079526;28;932;-61
2021/06/24 04:53:56;;;;;;;;;;;;;;;24.15;34.06;83999.25;2079905;28;836;-60
2021/06/24 04:54:56;;;;;;;;;;;;;;;24.15;33.56;83965.25;2080049;28;1906;-60
2021/06/24 04:55:56;;;;;;;;;;;;;;;24.15;33.41;83921.22;2080179;28;912;-60
2021/06/24 04:56:57;;;;;;;;;;;;;;;24.15;33.37;83915.22;2078859;28;1429;-60
2021/06/24 04:57:57;;;;;;;;;;;;;;;24.15;33.93;83915.22;2079763;28;1670;-60
2021/06/24 04:58:57;;;;;;;;;;;;;;;24.15;33.57;83907.22;2087908;28;948;-60
2021/06/24 04:59:57;;;;;;;;;;;;;;;24.15;33.40;83881.22;2079979;28;982;-59
2021/06/24 05:00:58;;;;;;;;;;;;;;;24.15;33.66;83933.22;2079314;28;884;-59
2021/06/24 05:01:58;;;;;;;;;;;;;;;24.15;33.84;83929.22;2080400;28;800;-61
2021/06/24 05:02:58;;;;;;;;;;;;;;;24.15;33.48;83949.25;2080096;28;848;-60
2021/06/24 05:03:58;;;;;;;;;;;;;;;24.15;34.10;83905.22;2080391;28;639;-59
2021/06/24 05:04:59;;;;;;;;;;;;;;;24.15;33.84;83957.25;2079973;28;1152;-61
2021/06/24 05:06:03;;;;;;;;;;;;;;;24.15;33.67;83949.25;2096109;28;868;-61
2021/06/24 05:07:08;;;;;;;;;;;;;;;24.15;34.15;83933.22;2094280;28;869;-61
2021/06/24 05:08:10;;;;;;;;;;;;;;;24.15;33.95;83875.22;2080297;28;837;-60
2021/06/24 05:09:10;;;;;;;;;;;;;;;24.15;33.95;83933.22;2079620;28;1262;-61
2021/06/24 05:10:11;;;;;;;;;;;;;;;24.15;34.02;83939.25;2079782;28;825;-61
2021/06/24 05:11:11;;;;;;;;;;;;;;;24.15;33.81;83927.22;2081419;28;2908;-60
2021/06/24 05:12:12;;;;;;;;;;;;;;;24.15;34.03;83923.22;2088302;28;1100;-59
2021/06/24 05:13:12;;;;;;;;;;;;;;;24.15;33.97;83897.22;2087675;28;1185;-61
2021/06/24 05:14:12;;;;;;;;;;;;;;;24.15;33.63;83887.22;2079616;28;991;-60
2021/06/24 05:15:13;;;;;;;;;;;;;;;24.15;33.69;83909.22;2087585;28;1985;-61
2021/06/24 05:16:13;;;;;;;;;;;;;;;24.15;34.10;83907.22;2087672;28;1373;-60
2021/06/24 05:17:13;;;;;;;;;;;;;;;24.15;33.88;83931.22;2087233;28;865;-62
2021/06/24 05:18:14;;;;;;;;;;;;;;;24.15;34.37;83973.25;2095743;28;817;-61
2021/06/24 05:19:14;;;;;;;;;;;;;;;24.15;34.36;83939.25;2087676;28;1441;-60
2021/06/24 05:20:14;;;;;;;;;;;;;;;24.15;33.66;83939.25;2071433;28;968;-61
2021/06/24 05:21:15;;;;;;;;;;;;;;;24.15;33.87;83965.25;2079546;28;892;-61
2021/06/24 05:22:16;;;;;;;;;;;;;;;24.15;34.58;83967.25;2087661;28;916;-61